Terminal Aerodrome Forecast
Issued by NWS

Home | Current Version | Previous Version | Text Only | Print | Product List | Glossary On
Versions: 1 2 3 4 5 6 7 8 9 10 11 12 13 14 15 16 17 18 19 20
391
FTUS46 KSEW 121749
TAFHQM
TAF
KHQM 121749Z 1218/1318 21013G20KT 6SM BR SCT008 BKN018
     FM130000 20012KT 5SM -SHRA BR SCT008 BKN012 OVC020
     FM131100 15008KT 5SM -RA BR SCT006 OVC012=

USA.gov is the U.S. government's official web portal to all federal, state and local government web resources and services.